createdAt,value
2022-08-01T00:02:55.721Z,3.73
2022-08-01T00:05:57.505Z,4.03
2022-08-01T00:08:59.235Z,3.67
2022-08-01T00:12:01.078Z,3.77
2022-08-01T00:15:03.780Z,4.07
2022-08-01T00:18:05.477Z,4.00
2022-08-01T00:21:07.194Z,3.40
2022-08-01T00:24:09.001Z,3.93
2022-08-01T00:27:17.237Z,3.63
2022-08-01T00:30:19.046Z,3.73
2022-08-01T00:33:20.710Z,3.80
2022-08-01T00:36:22.415Z,3.97
2022-08-01T00:39:24.093Z,4.20
2022-08-01T00:42:25.750Z,3.90
2022-08-01T00:45:27.459Z,4.13
2022-08-01T00:48:29.272Z,4.40
2022-08-01T00:51:31.749Z,3.90
2022-08-01T00:54:33.952Z,4.07
2022-08-01T00:58:02.549Z,4.33
2022-08-01T01:00:57.887Z,4.33
2022-08-01T01:04:00.512Z,4.70
2022-08-01T01:07:22.133Z,4.90
2022-08-01T01:10:36.520Z,5.10
2022-08-01T01:13:53.305Z,4.60
2022-08-01T01:16:55.348Z,4.40
2022-08-01T01:20:00.532Z,4.70
2022-08-01T01:23:40.041Z,5.23
2022-08-01T01:27:25.145Z,4.87
2022-08-01T01:30:30.893Z,5.70
2022-08-01T01:33:34.270Z,6.10
2022-08-01T01:36:37.835Z,6.63
2022-08-01T01:39:45.381Z,6.83
2022-08-01T01:42:57.621Z,7.13
2022-08-01T01:46:00.961Z,6.67
2022-08-01T01:49:03.382Z,7.23
2022-08-01T01:52:05.886Z,6.17
2022-08-01T01:55:09.400Z,6.63
2022-08-01T01:58:14.070Z,6.80
2022-08-01T02:01:16.573Z,7.10
2022-08-01T02:04:44.565Z,7.33
2022-08-01T02:07:46.598Z,7.83
2022-08-01T02:11:11.337Z,6.90
2022-08-01T02:14:15.176Z,7.00
2022-08-01T02:17:19.486Z,7.13
2022-08-01T02:20:21.325Z,6.77
2022-08-01T02:23:26.035Z,7.30
2022-08-01T02:26:29.191Z,7.33
2022-08-01T02:29:59.683Z,7.60
2022-08-01T02:33:10.118Z,7.07
2022-08-01T02:36:29.748Z,7.57
2022-08-01T02:39:37.189Z,8.27
2022-08-01T02:42:41.974Z,7.63
2022-08-01T02:45:50.747Z,8.43
2022-08-01T02:48:54.462Z,8.07
2022-08-01T02:51:57.684Z,9.43
2022-08-01T02:55:00.835Z,8.97
2022-08-01T02:58:03.995Z,8.57
2022-08-01T03:01:08.076Z,8.93
2022-08-01T03:04:10.652Z,8.87
2022-08-01T03:07:13.763Z,7.87
2022-08-01T03:10:17.763Z,8.57
2022-08-01T03:13:22.033Z,8.27
2022-08-01T03:16:27.304Z,8.03
2022-08-01T03:19:31.326Z,7.33
2022-08-01T03:22:34.766Z,6.70
2022-08-01T03:25:39.750Z,6.33
2022-08-01T03:28:45.221Z,6.00
2022-08-01T03:31:48.866Z,6.47
2022-08-01T03:34:50.822Z,6.17
2022-08-01T03:38:15.161Z,5.63
2022-08-01T03:41:22.039Z,5.03
2022-08-01T03:44:26.931Z,4.83
2022-08-01T03:47:33.013Z,4.40
2022-08-01T03:50:36.757Z,4.03
2022-08-01T03:53:42.633Z,4.43
2022-08-01T03:56:47.034Z,3.63
2022-08-01T03:59:50.357Z,3.77
2022-08-01T04:02:52.540Z,3.87
2022-08-01T04:05:54.364Z,3.90
2022-08-01T04:08:56.804Z,3.53
2022-08-01T04:12:00.935Z,3.80
2022-08-01T04:15:05.862Z,3.80
2022-08-01T04:18:07.678Z,3.97
2022-08-01T04:21:09.410Z,3.83
2022-08-01T04:24:18.508Z,4.50
2022-08-01T04:27:50.307Z,4.40
2022-08-01T04:31:01.576Z,4.20
2022-08-01T04:34:06.607Z,4.00
2022-08-01T04:37:13.205Z,4.60
2022-08-01T04:40:16.949Z,4.40
2022-08-01T04:43:19.811Z,4.50
2022-08-01T04:46:22.469Z,4.50
2022-08-01T04:49:25.311Z,4.50
2022-08-01T04:52:37.722Z,4.50
2022-08-01T04:55:39.383Z,4.60
2022-08-01T04:58:42.152Z,4.80
2022-08-01T05:01:43.851Z,5.17
2022-08-01T05:04:46.792Z,4.23
2022-08-01T05:07:48.558Z,5.23
2022-08-01T05:10:50.350Z,4.83
2022-08-01T05:13:52.482Z,4.80
2022-08-01T05:16:54.600Z,5.50
2022-08-01T05:19:56.445Z,5.20
2022-08-01T05:22:58.158Z,5.03
2022-08-01T05:25:59.827Z,5.73
2022-08-01T05:29:01.724Z,5.93
2022-08-01T05:32:04.399Z,6.13
2022-08-01T05:35:07.029Z,5.20
2022-08-01T05:38:08.706Z,6.90
2022-08-01T05:41:16.758Z,7.17
2022-08-01T05:44:18.500Z,6.33
2022-08-01T05:47:20.435Z,4.57
2022-08-01T05:50:22.084Z,4.73
2022-08-01T05:53:23.862Z,4.97
2022-08-01T05:56:29.339Z,4.63
2022-08-01T05:59:41.841Z,4.60
2022-08-01T06:02:44.306Z,4.17
2022-08-01T06:05:46.094Z,4.30
2022-08-01T06:08:48.067Z,3.20
2022-08-01T06:11:53.321Z,2.87
2022-08-01T06:14:55.010Z,2.70
2022-08-01T06:17:56.741Z,5.30
2022-08-01T06:20:58.497Z,2.50
2022-08-01T06:24:00.124Z,2.60
2022-08-01T06:27:02.676Z,2.80
2022-08-01T06:30:05.928Z,3.60
2022-08-01T06:33:07.603Z,2.30
2022-08-01T06:36:10.236Z,2.13
2022-08-01T06:39:11.918Z,2.47
2022-08-01T06:42:15.750Z,2.93
2022-08-01T06:45:18.057Z,2.87
2022-08-01T06:48:19.761Z,2.97
2022-08-01T06:51:21.764Z,2.40
2022-08-01T06:54:25.868Z,2.73
2022-08-01T06:57:27.725Z,3.10
2022-08-01T07:00:31.724Z,1.90
2022-08-01T07:03:53.320Z,2.60
2022-08-01T07:06:56.288Z,2.20
2022-08-01T07:09:58.076Z,2.27
2022-08-01T07:12:59.770Z,2.47
2022-08-01T07:16:01.430Z,2.87
2022-08-01T07:19:03.354Z,2.03
2022-08-01T07:22:05.407Z,2.70
2022-08-01T07:25:08.467Z,2.90
2022-08-01T07:28:10.205Z,4.50
2022-08-01T07:31:11.946Z,3.67
2022-08-01T07:34:13.609Z,3.70
2022-08-01T07:37:15.346Z,2.90
2022-08-01T07:40:18.563Z,3.40
2022-08-01T07:43:20.216Z,3.63
2022-08-01T07:46:23.045Z,3.30
2022-08-01T07:49:24.798Z,2.90
2022-08-01T07:52:27.884Z,2.50
2022-08-01T07:55:29.750Z,2.67
2022-08-01T07:58:31.596Z,2.33
2022-08-01T08:01:33.297Z,2.40
2022-08-01T08:04:35.147Z,3.40
2022-08-01T08:07:36.882Z,2.53
2022-08-01T08:10:38.701Z,2.43
2022-08-01T08:13:43.101Z,1.70
2022-08-01T08:16:45.494Z,1.83
2022-08-01T08:19:47.254Z,1.67
2022-08-01T08:22:48.906Z,1.90
2022-08-01T08:25:50.616Z,2.50
2022-08-01T08:28:52.323Z,2.77
2022-08-01T08:31:55.659Z,2.97
2022-08-01T08:34:58.794Z,2.50
2022-08-01T08:38:00.472Z,2.30
2022-08-01T08:41:03.634Z,2.97
2022-08-01T08:44:06.807Z,6.33
2022-08-01T08:47:19.060Z,2.60
2022-08-01T08:50:22.035Z,2.00
2022-08-01T08:53:24.405Z,3.13
2022-08-01T08:56:28.215Z,5.03
2022-08-01T08:59:30.480Z,3.10
2022-08-01T09:02:32.270Z,6.07
2022-08-01T09:05:38.760Z,2.80
2022-08-01T09:08:41.944Z,2.73
2022-08-01T09:11:43.719Z,1.90
2022-08-01T09:14:59.187Z,4.07
2022-08-01T09:18:00.961Z,4.50
2022-08-01T09:21:22.231Z,4.47
2022-08-01T09:24:30.367Z,2.70
2022-08-01T09:27:32.787Z,4.40
2022-08-01T09:30:39.902Z,3.10
2022-08-01T09:33:55.667Z,2.70
2022-08-01T09:37:03.470Z,2.13
2022-08-01T09:40:05.742Z,3.13
2022-08-01T09:43:14.958Z,1.97
2022-08-01T09:46:18.216Z,2.90
2022-08-01T09:49:50.056Z,2.43
2022-08-01T09:52:57.085Z,1.60
2022-08-01T09:56:11.647Z,2.10
2022-08-01T09:59:14.208Z,2.20
2022-08-01T10:02:32.162Z,2.40
2022-08-01T10:05:36.921Z,2.80
2022-08-01T10:08:47.981Z,2.20
2022-08-01T10:11:49.877Z,1.40
2022-08-01T10:14:56.354Z,1.73
2022-08-01T10:17:59.875Z,1.70
2022-08-01T10:21:03.727Z,3.10
2022-08-01T10:24:13.405Z,2.40
2022-08-01T10:27:24.395Z,1.70
2022-08-01T10:31:01.356Z,1.50
2022-08-01T10:34:16.892Z,1.20
2022-08-01T10:37:19.003Z,1.30
2022-08-01T10:40:36.978Z,1.30
2022-08-01T10:43:38.995Z,1.50
2022-08-01T10:46:49.584Z,1.77
2022-08-01T10:50:21.749Z,1.80
2022-08-01T10:53:31.089Z,2.00
2022-08-01T10:57:01.153Z,1.97
2022-08-01T11:00:18.625Z,1.90
2022-08-01T11:03:55.683Z,1.60
2022-08-01T11:07:10.078Z,1.43
2022-08-01T11:10:36.824Z,1.57
2022-08-01T11:14:01.820Z,1.70
2022-08-01T11:17:37.588Z,1.40
2022-08-01T11:21:59.028Z,1.50
2022-08-01T11:24:51.088Z,1.97
2022-08-01T11:28:15.323Z,2.80
2022-08-01T11:31:17.322Z,1.53
2022-08-01T11:34:19.653Z,1.40
2022-08-01T11:37:30.615Z,1.90
2022-08-01T11:40:32.611Z,3.13
2022-08-01T11:43:34.965Z,2.90
2022-08-01T11:46:56.949Z,2.90
2022-08-01T11:50:00.491Z,3.07
2022-08-01T11:53:05.074Z,2.37
2022-08-01T11:56:21.336Z,2.30
2022-08-01T11:59:23.821Z,2.90
2022-08-01T12:02:30.453Z,3.73
2022-08-01T12:05:35.223Z,1.90
2022-08-01T12:08:37.576Z,2.80
2022-08-01T12:11:40.062Z,2.67
2022-08-01T12:14:41.806Z,1.93
2022-08-01T12:17:57.277Z,1.83
2022-08-01T12:21:05.612Z,1.80
2022-08-01T12:24:07.649Z,2.10
2022-08-01T12:27:11.026Z,1.70
2022-08-01T12:30:15.385Z,1.40
2022-08-01T12:33:21.928Z,1.50
2022-08-01T12:36:30.776Z,1.40
2022-08-01T12:39:36.000Z,1.30
2022-08-01T12:42:43.305Z,1.17
2022-08-01T12:45:54.298Z,1.17
2022-08-01T12:48:58.998Z,2.07
2022-08-01T12:52:01.701Z,1.17
2022-08-01T12:55:10.029Z,1.50
2022-08-01T12:58:16.015Z,1.40
2022-08-01T13:01:27.904Z,1.00
2022-08-01T13:04:29.607Z,1.40
2022-08-01T13:07:46.215Z,1.23
2022-08-01T13:10:48.738Z,1.00
2022-08-01T13:13:51.862Z,1.20
2022-08-01T13:16:57.338Z,1.20
2022-08-01T13:19:59.481Z,1.13
2022-08-01T13:24:02.065Z,1.70
2022-08-01T13:26:52.732Z,1.50
2022-08-01T13:29:54.505Z,1.10
2022-08-01T13:33:02.555Z,1.00
2022-08-01T13:36:04.635Z,1.80
2022-08-01T13:39:25.446Z,1.70
2022-08-01T13:42:27.188Z,2.13
2022-08-01T13:45:28.847Z,1.87
2022-08-01T13:48:43.809Z,2.10
2022-08-01T13:51:47.537Z,2.10
2022-08-01T13:54:49.277Z,1.93
2022-08-01T13:57:52.584Z,1.80
2022-08-01T14:00:54.847Z,1.37
2022-08-01T14:03:56.588Z,1.30
2022-08-01T14:07:00.343Z,1.60
2022-08-01T14:10:17.732Z,1.73
2022-08-01T14:13:20.847Z,1.80
2022-08-01T14:16:25.912Z,1.50
2022-08-01T14:19:36.924Z,1.70
2022-08-01T14:22:41.505Z,1.70
2022-08-01T14:26:01.639Z,1.30
2022-08-01T14:29:06.068Z,1.40
2022-08-01T14:32:08.162Z,1.50
2022-08-01T14:35:10.277Z,1.40
2022-08-01T14:38:11.896Z,1.60
2022-08-01T14:41:23.497Z,1.60
2022-08-01T14:44:25.439Z,1.50
2022-08-01T14:47:29.868Z,2.00
2022-08-01T14:50:31.774Z,2.60
2022-08-01T14:53:35.773Z,2.10
2022-08-01T14:56:37.939Z,2.50
2022-08-01T14:59:39.600Z,2.40
2022-08-01T15:02:41.599Z,1.80
2022-08-01T15:05:43.323Z,2.17
2022-08-01T15:08:45.326Z,2.10
2022-08-01T15:11:48.063Z,2.10
2022-08-01T15:14:49.897Z,2.53
2022-08-01T15:17:53.392Z,2.07
2022-08-01T15:20:55.719Z,2.30
2022-08-01T15:23:57.431Z,2.00
2022-08-01T15:26:59.404Z,2.00
2022-08-01T15:30:01.104Z,1.70
2022-08-01T15:33:02.815Z,2.20
2022-08-01T15:36:04.768Z,2.10
2022-08-01T15:39:06.437Z,1.33
2022-08-01T15:42:11.154Z,1.90
2022-08-01T15:45:44.430Z,1.80
2022-08-01T15:48:40.896Z,2.20
2022-08-01T15:51:44.196Z,2.00
2022-08-01T15:54:45.831Z,1.90
2022-08-01T15:57:47.633Z,2.37
2022-08-01T16:00:49.369Z,2.03
2022-08-01T16:03:51.006Z,2.77
2022-08-01T16:06:52.749Z,2.43
2022-08-01T16:09:54.416Z,2.83
2022-08-01T16:12:56.127Z,2.80
2022-08-01T16:15:59.515Z,2.13
2022-08-01T16:19:01.201Z,2.90
2022-08-01T16:22:02.872Z,3.07
2022-08-01T16:25:05.244Z,2.57
2022-08-01T16:28:07.251Z,3.83
2022-08-01T16:31:14.923Z,3.23
2022-08-01T16:34:23.987Z,2.60
2022-08-01T16:37:25.738Z,2.70
2022-08-01T16:40:27.438Z,2.90
2022-08-01T16:43:29.272Z,2.43
2022-08-01T16:46:31.105Z,2.43
2022-08-01T16:49:33.063Z,2.80
2022-08-01T16:52:35.029Z,3.10
2022-08-01T16:55:50.561Z,3.40
2022-08-01T16:58:52.589Z,3.50
2022-08-01T17:02:01.519Z,5.57
2022-08-01T17:05:07.059Z,4.27
2022-08-01T17:08:11.064Z,4.07
2022-08-01T17:11:15.411Z,3.93
2022-08-01T17:14:17.843Z,4.67
2022-08-01T17:17:28.830Z,3.20
2022-08-01T17:20:54.400Z,3.70
2022-08-01T17:23:56.233Z,4.10
2022-08-01T17:27:08.172Z,3.60
2022-08-01T17:30:13.897Z,3.20
2022-08-01T17:33:15.746Z,4.43
2022-08-01T17:36:18.233Z,4.03
2022-08-01T17:39:23.703Z,3.57
2022-08-01T17:42:41.599Z,3.70
2022-08-01T17:45:50.835Z,4.03
2022-08-01T17:48:53.179Z,3.20
2022-08-01T17:52:26.155Z,3.30
2022-08-01T17:55:56.151Z,8.17
2022-08-01T17:58:53.311Z,3.30
2022-08-01T18:02:01.100Z,2.90
2022-08-01T18:05:04.630Z,2.63
2022-08-01T18:08:07.455Z,6.33
2022-08-01T18:11:09.508Z,6.00
2022-08-01T18:14:11.598Z,6.00
2022-08-01T18:17:13.560Z,5.00
2022-08-01T18:20:15.272Z,5.47
2022-08-01T18:23:17.109Z,3.70
2022-08-01T18:26:22.062Z,4.17
2022-08-01T18:29:48.298Z,4.23
2022-08-01T18:32:45.453Z,5.77
2022-08-01T18:35:52.426Z,5.63
2022-08-01T18:38:55.659Z,4.90
2022-08-01T18:42:00.026Z,4.70
2022-08-01T18:45:12.645Z,5.17
2022-08-01T18:48:14.287Z,6.37
2022-08-01T18:51:15.956Z,9.07
2022-08-01T18:54:17.822Z,6.63
2022-08-01T18:57:22.376Z,5.80
2022-08-01T19:00:24.226Z,6.07
2022-08-01T19:03:25.922Z,4.77
2022-08-01T19:06:28.304Z,4.73
2022-08-01T19:09:29.974Z,5.13
2022-08-01T19:12:31.646Z,5.07
2022-08-01T19:15:33.592Z,10.40
2022-08-01T19:18:35.357Z,6.30
2022-08-01T19:21:42.854Z,5.00
2022-08-01T19:24:46.474Z,4.77
2022-08-01T19:27:49.664Z,4.93
2022-08-01T19:30:53.626Z,4.27
2022-08-01T19:33:59.981Z,4.60
2022-08-01T19:37:01.748Z,4.63
2022-08-01T19:40:03.925Z,4.20
2022-08-01T19:43:10.045Z,5.17
2022-08-01T19:46:17.663Z,5.77
2022-08-01T19:49:22.746Z,5.00
2022-08-01T19:52:26.377Z,5.50
2022-08-01T19:55:31.135Z,5.20
2022-08-01T19:58:43.061Z,5.27
2022-08-01T20:01:45.646Z,5.70
2022-08-01T20:04:51.549Z,5.53
2022-08-01T20:07:55.181Z,5.07
2022-08-01T20:11:00.881Z,5.50
2022-08-01T20:14:04.853Z,6.47
2022-08-01T20:17:07.458Z,8.20
2022-08-01T20:20:10.853Z,4.83
2022-08-01T20:23:18.136Z,4.83
2022-08-01T20:26:22.000Z,4.80
2022-08-01T20:29:25.718Z,4.83
2022-08-01T20:32:32.002Z,5.17
2022-08-01T20:35:52.329Z,5.20
2022-08-01T20:38:56.699Z,4.87
2022-08-01T20:41:59.745Z,4.97
2022-08-01T20:45:04.183Z,4.57
2022-08-01T20:48:08.009Z,5.70
2022-08-01T20:51:15.543Z,4.60
2022-08-01T20:54:24.377Z,5.40
2022-08-01T20:57:29.245Z,5.40
2022-08-01T21:01:01.695Z,5.47
2022-08-01T21:04:26.808Z,5.53
2022-08-01T21:07:50.084Z,5.87
2022-08-01T21:10:57.504Z,6.07
2022-08-01T21:14:01.495Z,6.43
2022-08-01T21:17:08.738Z,6.43
2022-08-01T21:20:13.657Z,6.00
2022-08-01T21:23:27.874Z,6.17
2022-08-01T21:26:31.111Z,6.70
2022-08-01T21:30:06.616Z,6.00
2022-08-01T21:33:12.353Z,6.50
2022-08-01T21:36:17.214Z,6.80
2022-08-01T21:39:18.990Z,6.17
2022-08-01T21:42:22.215Z,6.33
2022-08-01T21:45:25.651Z,6.00
2022-08-01T21:48:30.857Z,6.13
2022-08-01T21:51:51.822Z,5.90
2022-08-01T21:55:36.425Z,6.97
2022-08-01T21:58:48.398Z,7.17
2022-08-01T22:02:02.362Z,6.70
2022-08-01T22:05:07.613Z,6.57
2022-08-01T22:08:10.501Z,6.13
2022-08-01T22:11:14.461Z,6.20
2022-08-01T22:14:18.392Z,6.43
2022-08-01T22:17:22.833Z,7.00
2022-08-01T22:20:27.174Z,6.33
2022-08-01T22:23:29.177Z,6.13
2022-08-01T22:26:33.470Z,6.00
2022-08-01T22:29:47.217Z,6.23
2022-08-01T22:33:07.159Z,6.33
2022-08-01T22:36:09.781Z,6.50
2022-08-01T22:39:14.878Z,6.53
2022-08-01T22:42:20.571Z,6.07
2022-08-01T22:45:31.423Z,6.30
2022-08-01T22:48:49.585Z,6.60
2022-08-01T22:52:32.189Z,6.83
2022-08-01T22:55:59.233Z,6.87
2022-08-01T22:59:05.008Z,6.33
2022-08-01T23:02:09.784Z,6.83
2022-08-01T23:05:16.969Z,6.87
2022-08-01T23:08:19.521Z,7.17
2022-08-01T23:11:22.858Z,6.53
2022-08-01T23:14:26.370Z,6.73
2022-08-01T23:17:31.855Z,6.37
2022-08-01T23:20:34.820Z,6.03
2022-08-01T23:23:37.882Z,5.87
2022-08-01T23:26:40.345Z,5.17
2022-08-01T23:29:42.166Z,6.33
2022-08-01T23:32:43.878Z,6.20
2022-08-01T23:35:45.814Z,6.10
2022-08-01T23:38:47.604Z,6.20
2022-08-01T23:41:58.433Z,6.27
2022-08-01T23:45:01.253Z,6.97
2022-08-01T23:48:03.125Z,6.63
2022-08-01T23:51:06.003Z,6.73
2022-08-01T23:54:07.826Z,6.13
2022-08-01T23:57:09.547Z,7.07
